createdAt,value
2018-07-21T00:02:10.874Z,58.97
2018-07-21T00:04:39.105Z,59.61
2018-07-21T00:07:07.349Z,59.75
2018-07-21T00:09:35.607Z,60.10
2018-07-21T00:12:03.914Z,60.01
2018-07-21T00:14:32.166Z,59.91
2018-07-21T00:17:00.441Z,59.67
2018-07-21T00:19:28.710Z,59.58
2018-07-21T00:21:56.974Z,61.07
2018-07-21T00:24:25.271Z,60.39
2018-07-21T00:26:53.513Z,60.27
2018-07-21T00:29:21.812Z,59.67
2018-07-21T00:31:50.008Z,59.89
2018-07-21T00:34:18.322Z,60.20
2018-07-21T00:36:46.553Z,59.54
2018-07-21T00:39:15.736Z,59.12
2018-07-21T00:41:44.304Z,59.83
2018-07-21T00:44:12.680Z,60.00
2018-07-21T00:46:40.887Z,58.63
2018-07-21T00:49:09.197Z,58.67
2018-07-21T00:51:37.404Z,59.66
2018-07-21T00:54:05.683Z,58.90
2018-07-21T00:56:33.939Z,58.72
2018-07-21T00:59:03.004Z,59.22
2018-07-21T01:01:31.293Z,58.87
2018-07-21T01:03:59.573Z,59.32
2018-07-21T01:06:27.798Z,59.44
2018-07-21T01:08:56.110Z,59.20
2018-07-21T01:11:24.361Z,59.04
2018-07-21T01:13:52.668Z,58.26
2018-07-21T01:16:20.936Z,58.09
2018-07-21T01:18:49.182Z,58.91
2018-07-21T01:21:17.495Z,58.01
2018-07-21T01:23:45.727Z,57.29
2018-07-21T01:26:13.994Z,57.00
2018-07-21T01:28:42.205Z,58.10
2018-07-21T01:31:10.524Z,57.41
2018-07-21T01:33:38.847Z,57.60
2018-07-21T01:36:07.099Z,57.54
2018-07-21T01:38:35.337Z,58.23
2018-07-21T01:41:04.234Z,57.18
2018-07-21T01:43:32.577Z,57.82
2018-07-21T01:46:00.896Z,56.98
2018-07-21T01:48:29.194Z,57.79
2018-07-21T01:50:57.454Z,57.30
2018-07-21T01:53:25.694Z,56.61
2018-07-21T01:55:53.963Z,57.22
2018-07-21T01:58:22.190Z,57.14
2018-07-21T02:00:50.507Z,57.47
2018-07-21T02:03:18.704Z,57.92
2018-07-21T02:05:46.979Z,58.40
2018-07-21T02:08:15.250Z,58.21
2018-07-21T02:10:43.484Z,58.25
2018-07-21T02:13:11.786Z,58.53
2018-07-21T02:15:40.095Z,58.77
2018-07-21T02:18:08.320Z,58.46
2018-07-21T02:20:36.601Z,59.13
2018-07-21T02:23:05.340Z,59.07
2018-07-21T02:25:33.582Z,59.73
2018-07-21T02:28:01.992Z,59.93
2018-07-21T02:30:30.245Z,59.31
2018-07-21T02:32:58.602Z,59.86
2018-07-21T02:35:26.830Z,60.01
2018-07-21T02:37:55.136Z,59.48
2018-07-21T02:40:23.588Z,59.58
2018-07-21T02:42:51.848Z,59.73
2018-07-21T02:45:20.131Z,59.14
2018-07-21T02:47:48.360Z,58.77
2018-07-21T02:50:16.613Z,58.77
2018-07-21T02:52:44.915Z,58.41
2018-07-21T02:55:13.148Z,59.40
2018-07-21T02:57:41.431Z,58.28
2018-07-21T03:00:09.707Z,58.37
2018-07-21T03:02:37.948Z,58.78
2018-07-21T03:05:06.275Z,59.36
2018-07-21T03:07:34.509Z,59.00
2018-07-21T03:10:03.435Z,59.47
2018-07-21T03:12:31.644Z,59.61
2018-07-21T03:14:59.905Z,58.55
2018-07-21T03:17:28.205Z,58.84
2018-07-21T03:19:56.477Z,58.83
2018-07-21T03:22:24.746Z,59.16
2018-07-21T03:24:53.014Z,59.59
2018-07-21T03:27:21.278Z,59.63
2018-07-21T03:29:49.561Z,59.35
2018-07-21T03:32:17.790Z,59.37
2018-07-21T03:34:46.074Z,59.11
2018-07-21T03:37:14.302Z,59.78
2018-07-21T03:39:43.091Z,59.05
2018-07-21T03:42:11.384Z,59.54
2018-07-21T03:44:39.643Z,59.29
2018-07-21T03:47:07.903Z,58.55
2018-07-21T03:49:36.147Z,59.87
2018-07-21T03:52:04.420Z,58.90
2018-07-21T03:54:32.615Z,58.90
2018-07-21T03:57:00.920Z,59.20
2018-07-21T03:59:29.143Z,59.61
2018-07-21T04:01:57.413Z,59.70
2018-07-21T04:04:25.676Z,58.62
2018-07-21T04:06:53.948Z,59.14
2018-07-21T04:09:22.175Z,59.71
2018-07-21T04:11:50.437Z,59.17
2018-07-21T04:14:18.636Z,58.79
2018-07-21T04:16:46.907Z,59.33
2018-07-21T04:19:15.178Z,58.94
2018-07-21T04:21:43.655Z,59.20
2018-07-21T04:24:11.897Z,59.25
2018-07-21T04:26:40.177Z,59.41
2018-07-21T04:29:08.418Z,59.64
2018-07-21T04:31:36.643Z,59.87
2018-07-21T04:34:04.888Z,58.96
2018-07-21T04:36:33.182Z,58.80
2018-07-21T04:39:01.951Z,59.35
2018-07-21T04:41:30.215Z,59.04
2018-07-21T04:43:58.564Z,59.74
2018-07-21T04:46:26.828Z,59.64
2018-07-21T04:48:55.100Z,59.76
2018-07-21T04:51:23.348Z,59.70
2018-07-21T04:53:51.598Z,61.00
2018-07-21T04:56:19.812Z,61.67
2018-07-21T04:58:48.109Z,61.57
2018-07-21T05:01:16.340Z,62.10
2018-07-21T05:03:44.600Z,61.86
2018-07-21T05:06:12.830Z,62.70
2018-07-21T05:08:41.161Z,63.93
2018-07-21T05:11:09.387Z,63.44
2018-07-21T05:13:37.647Z,63.68
2018-07-21T05:16:06.134Z,64.04
2018-07-21T05:18:34.405Z,64.37
2018-07-21T05:21:02.850Z,63.57
2018-07-21T05:23:31.121Z,65.05
2018-07-21T05:25:59.366Z,65.27
2018-07-21T05:28:27.636Z,65.56
2018-07-21T05:30:55.883Z,65.72
2018-07-21T05:33:24.176Z,65.93
2018-07-21T05:35:52.411Z,65.18
2018-07-21T05:38:20.649Z,66.25
2018-07-21T05:40:49.193Z,66.70
2018-07-21T05:43:17.400Z,66.39
2018-07-21T05:45:45.713Z,66.48
2018-07-21T05:48:13.960Z,66.11
2018-07-21T05:50:42.238Z,65.40
2018-07-21T05:53:10.495Z,65.61
2018-07-21T05:55:38.717Z,66.30
2018-07-21T05:58:06.990Z,64.79
2018-07-21T06:00:35.250Z,65.01
2018-07-21T06:03:03.562Z,65.24
2018-07-21T06:05:31.735Z,65.21
2018-07-21T06:07:59.980Z,64.89
2018-07-21T06:10:28.256Z,65.53
2018-07-21T06:12:56.518Z,65.37
2018-07-21T06:15:24.793Z,64.92
2018-07-21T06:17:52.992Z,65.49
2018-07-21T06:20:21.288Z,64.68
2018-07-21T06:22:49.579Z,64.63
2018-07-21T06:25:17.846Z,65.26
2018-07-21T06:27:46.089Z,65.32
2018-07-21T06:30:14.317Z,65.45
2018-07-21T06:32:42.580Z,64.98
2018-07-21T06:35:10.807Z,66.04
2018-07-21T06:37:39.087Z,65.44
2018-07-21T06:40:07.374Z,65.25
2018-07-21T06:42:35.715Z,66.84
2018-07-21T06:45:03.956Z,67.17
2018-07-21T06:47:32.229Z,66.39
2018-07-21T06:50:00.425Z,66.26
2018-07-21T06:52:28.726Z,66.04
2018-07-21T06:54:56.981Z,66.59
2018-07-21T06:57:25.272Z,66.32
2018-07-21T06:59:53.525Z,65.82
2018-07-21T07:02:21.804Z,66.47
2018-07-21T07:04:50.049Z,66.28
2018-07-21T07:07:18.317Z,66.44
2018-07-21T07:09:46.683Z,66.30
2018-07-21T07:12:14.952Z,66.40
2018-07-21T07:14:43.614Z,66.35
2018-07-21T07:17:12.048Z,66.23
2018-07-21T07:19:40.286Z,66.32
2018-07-21T07:22:08.601Z,65.09
2018-07-21T07:24:36.843Z,65.52
2018-07-21T07:27:05.623Z,65.71
2018-07-21T07:29:33.863Z,66.42
2018-07-21T07:32:02.146Z,65.25
2018-07-21T07:34:30.389Z,66.03
2018-07-21T07:36:58.653Z,64.57
2018-07-21T07:39:26.893Z,64.31
2018-07-21T07:41:55.180Z,64.28
2018-07-21T07:44:23.428Z,64.76
2018-07-21T07:46:51.709Z,64.60
2018-07-21T07:49:19.985Z,65.04
2018-07-21T07:51:48.249Z,64.05
2018-07-21T07:54:16.496Z,63.47
2018-07-21T07:56:44.785Z,63.41
2018-07-21T07:59:13.021Z,63.63
2018-07-21T08:01:41.282Z,62.99
2018-07-21T08:04:09.629Z,63.43
2018-07-21T08:06:37.861Z,63.00
2018-07-21T08:09:08.727Z,61.24
2018-07-21T08:11:36.990Z,62.67
2018-07-21T08:14:05.304Z,63.59
2018-07-21T08:16:33.525Z,63.45
2018-07-21T08:19:01.804Z,62.59
2018-07-21T08:21:30.125Z,61.77
2018-07-21T08:23:58.410Z,62.19
2018-07-21T08:26:26.681Z,61.43
2018-07-21T08:28:54.981Z,62.01
2018-07-21T08:31:23.189Z,62.19
2018-07-21T08:33:51.508Z,62.14
2018-07-21T08:36:19.728Z,62.50
2018-07-21T08:38:48.003Z,62.95
2018-07-21T08:41:16.248Z,63.77
2018-07-21T08:43:44.532Z,63.80
2018-07-21T08:46:12.848Z,64.31
2018-07-21T08:48:41.052Z,64.97
2018-07-21T08:51:09.381Z,66.10
2018-07-21T08:53:37.639Z,65.94
2018-07-21T08:56:06.019Z,66.63
2018-07-21T08:58:34.218Z,66.43
2018-07-21T09:01:03.064Z,66.77
2018-07-21T09:03:31.303Z,67.20
2018-07-21T09:05:59.777Z,67.43
2018-07-21T09:08:28.071Z,67.52
2018-07-21T09:10:56.404Z,68.64
2018-07-21T09:13:24.700Z,68.11
2018-07-21T09:15:52.977Z,68.58
2018-07-21T09:18:21.254Z,67.98
2018-07-21T09:20:49.574Z,67.98
2018-07-21T09:23:17.861Z,68.12
2018-07-21T09:25:46.180Z,67.51
2018-07-21T09:28:14.456Z,66.93
2018-07-21T09:30:42.686Z,66.51
2018-07-21T09:33:10.970Z,66.34
2018-07-21T09:35:39.196Z,67.86
2018-07-21T09:38:07.500Z,66.90
2018-07-21T09:40:35.756Z,66.85
2018-07-21T09:43:04.141Z,66.80
2018-07-21T09:45:32.387Z,65.34
2018-07-21T09:48:00.663Z,65.86
2018-07-21T09:50:28.913Z,65.97
2018-07-21T09:52:57.230Z,65.49
2018-07-21T09:55:25.485Z,64.98
2018-07-21T09:57:53.720Z,64.51
2018-07-21T10:00:27.498Z,65.24
2018-07-21T10:02:55.773Z,64.39
2018-07-21T10:05:24.006Z,64.82
2018-07-21T10:07:52.275Z,65.58
2018-07-21T10:10:21.930Z,66.13
2018-07-21T10:12:50.163Z,65.92
2018-07-21T10:15:18.440Z,66.27
2018-07-21T10:17:46.708Z,66.24
2018-07-21T10:20:15.121Z,67.08
2018-07-21T10:22:43.429Z,67.40
2018-07-21T10:25:17.128Z,66.55
2018-07-21T10:27:50.656Z,67.03
2018-07-21T10:30:18.934Z,67.87
2018-07-21T10:32:47.178Z,68.07
2018-07-21T10:35:15.452Z,67.97
2018-07-21T10:37:43.806Z,68.00
2018-07-21T10:40:12.125Z,67.50
2018-07-21T10:42:40.369Z,67.70
2018-07-21T10:45:08.682Z,67.64
2018-07-21T10:47:36.945Z,66.53
2018-07-21T10:50:07.221Z,66.50
2018-07-21T10:52:35.509Z,65.77
2018-07-21T10:55:03.795Z,65.69
2018-07-21T10:57:32.056Z,64.31
2018-07-21T11:00:00.339Z,64.55
2018-07-21T11:02:28.610Z,63.34
2018-07-21T11:04:57.679Z,63.62
2018-07-21T11:07:25.942Z,62.81
2018-07-21T11:09:54.188Z,63.16
2018-07-21T11:12:22.473Z,63.05
2018-07-21T11:14:50.742Z,62.32
2018-07-21T11:17:19.005Z,62.06
2018-07-21T11:19:47.238Z,61.92
2018-07-21T11:22:15.543Z,62.21
2018-07-21T11:24:43.794Z,61.96
2018-07-21T11:27:12.078Z,62.11
2018-07-21T11:29:40.314Z,62.13
2018-07-21T11:32:08.573Z,61.01
2018-07-21T11:34:36.831Z,60.56
2018-07-21T11:37:05.112Z,60.26
2018-07-21T11:39:33.340Z,60.87
2018-07-21T11:42:02.036Z,61.33
2018-07-21T11:44:30.304Z,62.40
2018-07-21T11:46:58.560Z,61.84
2018-07-21T11:49:26.803Z,61.35
2018-07-21T11:51:55.067Z,61.09
2018-07-21T11:54:23.410Z,60.56
2018-07-21T11:56:59.680Z,60.63
2018-07-21T11:59:28.173Z,60.02
2018-07-21T12:01:56.477Z,60.69
2018-07-21T12:04:25.375Z,60.51
2018-07-21T12:06:53.931Z,61.26
2018-07-21T12:09:22.221Z,60.72
2018-07-21T12:11:50.466Z,60.49
2018-07-21T12:14:18.778Z,60.86
2018-07-21T12:16:47.039Z,60.34
2018-07-21T12:19:15.422Z,60.79
2018-07-21T12:21:43.732Z,61.97
2018-07-21T12:24:12.025Z,62.01
2018-07-21T12:26:40.287Z,62.28
2018-07-21T12:29:08.755Z,61.87
2018-07-21T12:31:37.016Z,61.52
2018-07-21T12:34:05.396Z,60.90
2018-07-21T12:36:33.613Z,61.08
2018-07-21T12:39:02.082Z,60.72
2018-07-21T12:41:30.321Z,61.12
2018-07-21T12:43:58.556Z,61.65
2018-07-21T12:46:26.838Z,61.96
2018-07-21T12:48:55.162Z,62.18
2018-07-21T12:51:23.630Z,61.34
2018-07-21T12:53:51.823Z,60.25
2018-07-21T12:56:20.147Z,60.74
2018-07-21T12:58:48.372Z,59.70
2018-07-21T13:01:16.668Z,59.18
2018-07-21T13:03:45.012Z,60.10
2018-07-21T13:06:13.246Z,59.81
2018-07-21T13:08:41.513Z,59.41
2018-07-21T13:11:09.768Z,60.47
2018-07-21T13:13:38.051Z,60.58
2018-07-21T13:16:06.330Z,60.01
2018-07-21T13:18:34.622Z,60.35
2018-07-21T13:21:03.643Z,59.90
2018-07-21T13:23:31.890Z,60.83
2018-07-21T13:26:00.215Z,60.56
2018-07-21T13:28:28.460Z,59.45
2018-07-21T13:30:56.724Z,61.12
2018-07-21T13:33:24.984Z,59.23
2018-07-21T13:35:53.273Z,59.43
2018-07-21T13:38:21.540Z,59.20
2018-07-21T13:40:49.828Z,59.48
2018-07-21T13:43:18.091Z,59.75
2018-07-21T13:45:46.359Z,58.91
2018-07-21T13:48:14.663Z,58.68
2018-07-21T13:50:43.526Z,57.87
2018-07-21T13:53:11.845Z,57.85
2018-07-21T13:55:40.107Z,57.27
2018-07-21T13:58:08.405Z,58.21
2018-07-21T14:00:36.672Z,58.47
2018-07-21T14:03:04.932Z,58.39
2018-07-21T14:05:33.220Z,58.71
2018-07-21T14:08:02.022Z,58.13
2018-07-21T14:10:30.302Z,59.18
2018-07-21T14:12:58.576Z,58.35
2018-07-21T14:15:26.824Z,60.65
2018-07-21T14:17:55.132Z,59.00
2018-07-21T14:20:23.403Z,58.94
2018-07-21T14:22:51.728Z,59.41
2018-07-21T14:25:19.997Z,58.64
2018-07-21T14:27:48.308Z,58.67
2018-07-21T14:30:16.597Z,58.69
2018-07-21T14:32:44.883Z,57.85
2018-07-21T14:35:13.139Z,58.33
2018-07-21T14:37:41.444Z,59.68
2018-07-21T14:40:09.728Z,59.94
2018-07-21T14:42:38.006Z,59.65
2018-07-21T14:45:06.549Z,58.76
2018-07-21T14:47:34.819Z,57.86
2018-07-21T14:50:03.762Z,58.55
2018-07-21T14:52:32.015Z,59.61
2018-07-21T14:55:00.349Z,58.03
2018-07-21T14:57:28.932Z,58.99
2018-07-21T14:59:57.176Z,58.11
2018-07-21T15:02:25.467Z,58.50
2018-07-21T15:04:54.748Z,58.75
2018-07-21T15:07:22.992Z,59.39
2018-07-21T15:09:51.293Z,59.16
2018-07-21T15:12:19.630Z,58.93
2018-07-21T15:14:47.883Z,59.11
2018-07-21T15:17:16.147Z,59.02
2018-07-21T15:19:44.441Z,58.33
2018-07-21T15:22:12.720Z,57.78
2018-07-21T15:24:41.041Z,58.29
2018-07-21T15:27:09.294Z,58.23
2018-07-21T15:29:37.744Z,58.34
2018-07-21T15:32:05.904Z,59.49
2018-07-21T15:34:34.131Z,58.79
2018-07-21T15:37:02.560Z,59.03
2018-07-21T15:39:31.974Z,59.21
2018-07-21T15:42:00.239Z,58.37
2018-07-21T15:44:28.513Z,58.66
2018-07-21T15:46:56.744Z,59.33
2018-07-21T15:49:25.072Z,59.57
2018-07-21T15:51:53.336Z,59.69
2018-07-21T15:54:21.622Z,59.55
2018-07-21T15:56:49.925Z,59.52
2018-07-21T15:59:18.400Z,60.39
2018-07-21T16:01:47.553Z,59.96
2018-07-21T16:04:15.566Z,58.90
2018-07-21T16:06:43.855Z,59.23
2018-07-21T16:09:12.362Z,58.03
2018-07-21T16:11:41.216Z,58.40
2018-07-21T16:14:09.493Z,57.78
2018-07-21T16:16:38.714Z,56.02
2018-07-21T16:19:06.943Z,56.10
2018-07-21T16:21:35.517Z,57.05
2018-07-21T16:24:03.765Z,56.75
2018-07-21T16:26:32.045Z,56.53
2018-07-21T16:29:00.314Z,54.94
2018-07-21T16:31:28.619Z,55.05
2018-07-21T16:33:56.847Z,55.51
2018-07-21T16:36:25.716Z,53.88
2018-07-21T16:38:54.002Z,50.73
2018-07-21T16:41:22.278Z,42.97
2018-07-21T16:43:50.545Z,40.48
2018-07-21T16:46:18.851Z,42.95
2018-07-21T16:48:47.575Z,45.56
2018-07-21T16:51:15.811Z,49.03
2018-07-21T16:53:44.081Z,47.69
2018-07-21T16:56:12.323Z,48.66
2018-07-21T16:58:40.601Z,47.35
2018-07-21T17:01:08.882Z,48.12
2018-07-21T17:03:38.568Z,50.06
2018-07-21T17:06:06.884Z,51.15
2018-07-21T17:08:35.169Z,51.81
2018-07-21T17:11:03.436Z,52.47
2018-07-21T17:13:32.263Z,54.12
2018-07-21T17:16:00.495Z,54.46
2018-07-21T17:18:28.906Z,55.04
2018-07-21T17:20:57.168Z,54.96
2018-07-21T17:23:26.391Z,56.18
2018-07-21T17:25:54.662Z,57.56
2018-07-21T17:28:22.985Z,56.70
2018-07-21T17:30:51.328Z,58.04
2018-07-21T17:33:19.574Z,57.56
2018-07-21T17:35:47.886Z,58.81
2018-07-21T17:38:16.130Z,57.99
2018-07-21T17:40:44.397Z,58.89
2018-07-21T17:43:12.640Z,59.02
2018-07-21T17:45:41.054Z,59.42
2018-07-21T17:48:09.397Z,58.91
2018-07-21T17:50:37.700Z,58.96
2018-07-21T17:53:05.980Z,60.53
2018-07-21T17:55:34.267Z,61.32
2018-07-21T17:58:02.571Z,61.86
2018-07-21T18:00:31.304Z,62.32
2018-07-21T18:02:59.588Z,63.48
2018-07-21T18:05:27.885Z,63.71
2018-07-21T18:07:56.155Z,64.92
2018-07-21T18:10:24.416Z,65.17
2018-07-21T18:12:52.706Z,65.16
2018-07-21T18:15:20.927Z,64.78
2018-07-21T18:17:49.252Z,65.29
2018-07-21T18:20:17.454Z,65.66
2018-07-21T18:22:45.808Z,64.86
2018-07-21T18:25:14.117Z,65.40
2018-07-21T18:27:42.349Z,64.87
2018-07-21T18:30:10.592Z,65.45
2018-07-21T18:32:38.851Z,65.64
2018-07-21T18:35:07.161Z,66.34
2018-07-21T18:37:35.443Z,65.15
2018-07-21T18:40:03.937Z,65.36
2018-07-21T18:42:32.192Z,66.06
2018-07-21T18:45:00.472Z,65.11
2018-07-21T18:47:28.770Z,65.15
2018-07-21T18:49:57.854Z,66.15
2018-07-21T18:52:26.180Z,65.11
2018-07-21T18:54:54.440Z,65.97
2018-07-21T18:57:23.234Z,65.60
2018-07-21T18:59:51.560Z,65.76
2018-07-21T19:02:19.776Z,66.10
2018-07-21T19:04:48.021Z,66.23
2018-07-21T19:07:16.365Z,66.40
2018-07-21T19:09:44.604Z,66.10
2018-07-21T19:12:18.175Z,66.73
2018-07-21T19:14:46.527Z,66.66
2018-07-21T19:17:14.942Z,66.28
2018-07-21T19:19:48.500Z,66.60
2018-07-21T19:22:16.760Z,66.21
2018-07-21T19:24:45.130Z,66.07
2018-07-21T19:27:18.635Z,66.27
2018-07-21T19:29:47.090Z,66.28
2018-07-21T19:32:20.582Z,67.05
2018-07-21T19:34:48.880Z,67.49
2018-07-21T19:37:22.358Z,67.75
2018-07-21T19:39:50.608Z,67.64
2018-07-21T19:42:18.888Z,67.73
2018-07-21T19:44:47.197Z,68.25
2018-07-21T19:47:15.501Z,67.84
2018-07-21T19:49:43.763Z,67.32
2018-07-21T19:52:12.008Z,68.30
2018-07-21T19:54:40.296Z,68.47
2018-07-21T19:57:08.552Z,68.19
2018-07-21T19:59:38.840Z,67.23
2018-07-21T20:02:07.073Z,67.79
2018-07-21T20:04:35.353Z,67.42
2018-07-21T20:07:03.638Z,67.25
2018-07-21T20:09:31.880Z,67.30
2018-07-21T20:12:00.120Z,66.87
2018-07-21T20:14:28.394Z,66.99
2018-07-21T20:16:56.737Z,67.96
2018-07-21T20:19:24.999Z,67.83
2018-07-21T20:21:53.329Z,68.42
2018-07-21T20:24:21.602Z,68.43
2018-07-21T20:26:49.878Z,68.29
2018-07-21T20:29:18.112Z,68.19
2018-07-21T20:31:46.442Z,68.02
2018-07-21T20:34:14.706Z,69.14
2018-07-21T20:36:43.011Z,68.63
2018-07-21T20:39:11.680Z,68.92
2018-07-21T20:41:40.011Z,69.30
2018-07-21T20:44:08.250Z,69.12
2018-07-21T20:46:36.770Z,69.44
2018-07-21T20:49:04.976Z,69.46
2018-07-21T20:51:33.289Z,69.27
2018-07-21T20:54:01.527Z,69.44
2018-07-21T20:56:30.029Z,68.89
2018-07-21T20:58:58.314Z,69.00
2018-07-21T21:01:26.567Z,69.68
2018-07-21T21:03:54.809Z,69.71
2018-07-21T21:06:23.085Z,70.18
2018-07-21T21:08:51.382Z,69.58
2018-07-21T21:11:19.596Z,69.74
2018-07-21T21:13:47.963Z,69.89
2018-07-21T21:16:16.227Z,69.92
2018-07-21T21:18:44.512Z,69.03
2018-07-21T21:21:12.768Z,69.68
2018-07-21T21:23:41.104Z,70.17
2018-07-21T21:26:09.344Z,70.19
2018-07-21T21:28:37.620Z,71.21
2018-07-21T21:31:05.881Z,71.06
2018-07-21T21:33:34.137Z,71.13
2018-07-21T21:36:02.976Z,72.04
2018-07-21T21:38:31.284Z,72.74
2018-07-21T21:40:59.529Z,72.57
2018-07-21T21:43:27.811Z,72.53
2018-07-21T21:45:56.077Z,72.93
2018-07-21T21:48:24.572Z,73.05
2018-07-21T21:50:52.796Z,73.04
2018-07-21T21:53:21.050Z,73.84
2018-07-21T21:55:49.341Z,73.78
2018-07-21T21:58:17.624Z,74.05
2018-07-21T22:01:14.215Z,74.45
2018-07-21T22:03:42.884Z,73.69
2018-07-21T22:06:11.177Z,73.84
2018-07-21T22:08:39.467Z,74.45
2018-07-21T22:11:07.740Z,74.07
2018-07-21T22:13:35.982Z,74.13
2018-07-21T22:16:04.266Z,74.71
2018-07-21T22:18:32.694Z,74.55
2018-07-21T22:21:00.978Z,74.94
2018-07-21T22:23:29.257Z,74.40
2018-07-21T22:25:57.531Z,74.75
2018-07-21T22:28:25.774Z,74.82
2018-07-21T22:30:54.074Z,74.39
2018-07-21T22:33:22.318Z,73.97
2018-07-21T22:35:50.676Z,74.18
2018-07-21T22:38:18.933Z,73.88
2018-07-21T22:40:47.267Z,73.39
2018-07-21T22:43:15.557Z,73.96
2018-07-21T22:45:43.791Z,73.81
2018-07-21T22:48:12.009Z,73.83
2018-07-21T22:50:40.319Z,74.09
2018-07-21T22:53:08.564Z,74.23
2018-07-21T22:55:36.856Z,74.01
2018-07-21T22:58:05.139Z,74.39
2018-07-21T23:00:33.404Z,74.30
2018-07-21T23:03:02.116Z,74.76
2018-07-21T23:05:30.355Z,74.77
2018-07-21T23:07:58.634Z,75.00
2018-07-21T23:10:26.862Z,74.81
2018-07-21T23:12:55.181Z,75.03
2018-07-21T23:15:23.391Z,74.91
2018-07-21T23:17:51.668Z,75.06
2018-07-21T23:20:19.912Z,74.88
2018-07-21T23:22:48.236Z,74.97
2018-07-21T23:25:16.486Z,74.67
2018-07-21T23:27:44.767Z,74.45
2018-07-21T23:30:13.064Z,74.48
2018-07-21T23:32:41.263Z,74.48
2018-07-21T23:35:09.540Z,74.64
2018-07-21T23:37:37.823Z,74.95
2018-07-21T23:40:06.743Z,74.92
2018-07-21T23:42:35.000Z,74.77
2018-07-21T23:45:03.552Z,75.06
2018-07-21T23:47:31.924Z,74.75
2018-07-21T23:50:00.206Z,74.91
2018-07-21T23:52:28.466Z,75.30
2018-07-21T23:54:56.712Z,75.29
2018-07-21T23:57:24.984Z,74.93
2018-07-21T23:59:53.285Z,74.93
